Aviation Digital Data Service (ADDS)

Output produced by METARs form (0956 UTC 23 July 2019)
found at http://www.aviationweather.gov/metar/data/
 
Forecast for: PACD (COLD BAY , AK, US)
Text: PACD 230526Z 2306/2406 15015KT P6SM FEW025
Forecast period: 0600 to 0900 UTC 23 July 2019
Forecast type: FROM: standard forecast or significant change
Winds: from the SSE (150 degrees) at 17 MPH (15 knots; 7.7 m/s)
Visibility: 6 or more miles 10+ km)
Ceiling: at least 12,000 feet AGL
Clouds: few clouds at 2500 feet AGL
Weather: no significant weather forecast for this period
Text: FM230900 15013KT P6SM VCSH BKN025
Forecast period: 0900 UTC 23 July 2019 to 0600 UTC 24 July 2019
Forecast type: FROM: standard forecast or significant change
Winds: from the SSE (150 degrees) at 15 MPH (13 knots; 6.7 m/s)
Visibility: 6 or more miles 10+ km)
Ceiling: 2500 feet AGL
Clouds: broken clouds at 2500 feet AGL
Weather: VCSH  (showers in vicinity)